Terminal Aerodrome Forecast
Issued by NWS

Home | Current Version | Previous Version | Text Only | Print | Product List | Glossary On
Versions: 1 2 3 4 5 6 7 8 9 10 11 12 13 14 15 16 17 18 19 20 21 22 23 24 25 26
000
FTUS45 KLKN 040520
TAFELY
TAF
KELY 040520Z 0406/0506 34008KT P6SM VCTS SCT080CB BKN150
     FM041100 18009KT P6SM SCT080 BKN150
     FM041800 18008G16KT P6SM VCTS BKN100CB
      TEMPO 0421/0501 VRB20G35KT -TSRA SCT060CB OVC080
     FM050300 17010KT P6SM SCT060 BKN100=

USA.gov is the U.S. government's official web portal to all federal, state and local government web resources and services.